P'ing-tung, Taiwan
Current Conditions -  °F | °C
As of 6:30 PM on Saturday 22 Nov 2014 (Local Time) from RCKH Reporting Station
Scattered Clouds Scattered Clouds  
Wind Chill: 77°   Ceiling: Unl
Heat Index: 79°   Visibility: 6mi
Dew Point: 70°   Wind: 7mph
Humidity: 78%   Direction: 290°WNW
Pressure: 29.94"   Gusts: NA
Location:  22.67°N, 120.48°E
Report Text: RCKH 221030Z 29006KT 9999 FEW014 SCT070 25/21 Q1014 NOSIGRMK A2997
Loading
Personal Weather Stations






























Interactive Weather Map New forecast layout! Learn more

10-Day Weather Forecast

Advertisements
Track Severe Weather on mobile